Time;durP1;ratioP1;P1;durP2;ratioP2;P2;SDS_P1;SDS_P2;PMS_P1;PMS_P2;Temp;Humidity;BMP_temperature;BMP_pressure;BME280_temperature;BME280_humidity;BME280_pressure;Samples;Min_cycle;Max_cycle;Signal;HPM_P1;HPM_P2
2023/12/26 00:00:38;;;;;;;;;;;;;;;;;;6287562;28;19982;-81
2023/12/26 00:03:38;;;;;;;;;;;;;;;;;;6282713;28;19978;-80
2023/12/26 00:06:40;;;;;;;;;;;;;;;;;;6286127;28;20380;-81
2023/12/26 00:09:40;;;;;;;;;;;;;;;;;;6289729;28;19916;-80
2023/12/26 00:12:41;;;;;;;;;;;;;;;;;;6289735;28;19947;-81
2023/12/26 00:15:41;;;;;;;;;;;;;;;;;;6287488;28;20009;-80
2023/12/26 00:18:41;;;;;;;;;;;;;;;;;;6285244;28;19917;-81
2023/12/26 00:21:41;;;;;;;;;;;;;;;;;;6297451;28;20330;-81
2023/12/26 00:24:41;;;;;;;;;;;;;;;;;;6283717;28;19919;-81
2023/12/26 00:27:42;;;;;;;;;;;;;;;;;;6289136;28;19913;-81
2023/12/26 00:30:42;;;;;;;;;;;;;;;;;;6288082;28;19920;-81
2023/12/26 00:33:42;;;;;;;;;;;;;;;;;;6285461;28;19919;-80
2023/12/26 00:36:42;;;;;;;;;;;;;;;;;;6288837;28;19917;-80
2023/12/26 00:39:43;;;;;;;;;;;;;;;;;;6282710;28;20400;-81
2023/12/26 00:42:44;;;;;;;;;;;;;;;;;;6287167;28;19921;-80
2023/12/26 00:45:44;;;;;;;;;;;;;;;;;;6286721;28;20288;-80
2023/12/26 00:48:44;;;;;;;;;;;;;;;;;;6289575;28;19924;-80
2023/12/26 00:51:45;;;;;;;;;;;;;;;;;;6268351;28;19975;-80
2023/12/26 00:54:45;;;;;;;;;;;;;;;;;;6282309;28;20301;-79
2023/12/26 00:57:45;;;;;;;;;;;;;;;;;;6287373;28;19912;-80
2023/12/26 01:00:45;;;;;;;;;;;;;;;;;;6280049;28;20288;-80
2023/12/26 01:03:46;;;;;;;;;;;;;;;;;;6292865;28;20292;-79
2023/12/26 01:06:46;;;;;;;;;;;;;;;;;;6291542;28;20384;-80
2023/12/26 01:09:46;;;;;;;;;;;;;;;;;;6281640;28;19917;-80
2023/12/26 01:12:46;;;;;;;;;;;;;;;;;;6292299;28;19920;-80
2023/12/26 01:15:46;;;;;;;;;;;;;;;;;;6280333;28;19916;-80
2023/12/26 01:18:47;;;;;;;;;;;;;;;;;;6288859;28;19939;-80
2023/12/26 01:21:47;;;;;;;;;;;;;;;;;;6291449;28;19921;-80
2023/12/26 01:24:47;;;;;;;;;;;;;;;;;;6281920;28;19996;-80
2023/12/26 01:27:47;;;;;;;;;;;;;;;;;;6283688;28;20011;-79
2023/12/26 01:30:48;;;;;;;;;;;;;;;;;;6280884;28;19969;-80
2023/12/26 01:33:48;;;;;;;;;;;;;;;;;;6286707;28;19909;-79
2023/12/26 01:36:48;;;;;;;;;;;;;;;;;;6277205;28;19919;-80
2023/12/26 01:39:48;;;;;;;;;;;;;;;;;;6284506;28;19916;-79
2023/12/26 01:42:48;;;;;;;;;;;;;;;;;;6289682;28;19924;-80
2023/12/26 01:45:48;;;;;;;;;;;;;;;;;;6289039;28;19959;-79
2023/12/26 01:48:48;;;;;;;;;;;;;;;;;;6284536;28;20367;-79
2023/12/26 01:51:51;;;;;;;;;;;;;;;;;;6279297;28;20292;-79
2023/12/26 01:54:51;;;;;;;;;;;;;;;;;;6285229;28;19912;-81
2023/12/26 01:57:51;;;;;;;;;;;;;;;;;;6280529;28;20300;-80
2023/12/26 02:00:51;;;;;;;;;;;;;;;;;;6280189;28;19925;-80
2023/12/26 02:03:54;;;;;;;;;;;;;;;;;;6289609;28;19920;-81
2023/12/26 02:06:54;;;;;;;;;;;;;;;;;;6289277;28;20443;-81
2023/12/26 02:09:54;;;;;;;;;;;;;;;;;;6293715;28;19912;-81
2023/12/26 02:12:54;;;;;;;;;;;;;;;;;;6280511;28;19912;-81
2023/12/26 02:15:55;;;;;;;;;;;;;;;;;;6289205;28;19912;-81
2023/12/26 02:18:55;;;;;;;;;;;;;;;;;;6291178;28;19918;-81
2023/12/26 02:21:55;;;;;;;;;;;;;;;;;;6297187;28;19924;-81
2023/12/26 02:24:55;;;;;;;;;;;;;;;;;;6287417;28;20430;-81
2023/12/26 02:27:55;;;;;;;;;;;;;;;;;;6287150;28;20023;-80
2023/12/26 02:30:55;;;;;;;;;;;;;;;;;;6282903;28;19913;-81
2023/12/26 02:33:56;;;;;;;;;;;;;;;;;;6291140;28;19913;-81
2023/12/26 02:36:56;;;;;;;;;;;;;;;;;;6292526;28;19974;-80
2023/12/26 02:39:56;;;;;;;;;;;;;;;;;;6288634;28;19913;-81
2023/12/26 02:42:56;;;;;;;;;;;;;;;;;;6283458;28;19920;-81
2023/12/26 02:45:56;;;;;;;;;;;;;;;;;;6284606;28;19919;-81
2023/12/26 02:48:56;;;;;;;;;;;;;;;;;;6276569;28;20000;-81
2023/12/26 02:51:56;;;;;;;;;;;;;;;;;;6267640;28;20003;-81
2023/12/26 02:54:57;;;;;;;;;;;;;;;;;;6261793;28;19919;-81
2023/12/26 02:57:57;;;;;;;;;;;;;;;;;;6284513;28;20004;-81
2023/12/26 03:00:57;;;;;;;;;;;;;;;;;;6279585;28;19928;-81
2023/12/26 03:03:57;;;;;;;;;;;;;;;;;;6262829;28;20023;-80
2023/12/26 03:06:57;;;;;;;;;;;;;;;;;;6278695;28;19917;-80
2023/12/26 03:09:58;;;;;;;;;;;;;;;;;;6288208;28;19921;-80
2023/12/26 03:12:58;;;;;;;;;;;;;;;;;;6287666;28;19955;-80
2023/12/26 03:15:58;;;;;;;;;;;;;;;;;;6286851;28;19957;-80
2023/12/26 03:18:58;;;;;;;;;;;;;;;;;;6272446;28;20319;-80
2023/12/26 03:21:58;;;;;;;;;;;;;;;;;;6285710;28;20729;-79
2023/12/26 03:24:58;;;;;;;;;;;;;;;;;;6267317;28;19922;-80
2023/12/26 03:27:58;;;;;;;;;;;;;;;;;;6290609;28;19948;-80
2023/12/26 03:30:59;;;;;;;;;;;;;;;;;;6280014;28;19923;-80
2023/12/26 03:33:59;;;;;;;;;;;;;;;;;;6289787;28;19913;-79
2023/12/26 03:36:59;;;;;;;;;;;;;;;;;;6287085;28;19923;-80
2023/12/26 03:39:59;;;;;;;;;;;;;;;;;;6287434;28;19924;-80
2023/12/26 03:42:59;;;;;;;;;;;;;;;;;;6285937;28;19925;-80
2023/12/26 03:45:59;;;;;;;;;;;;;;;;;;6285009;28;19913;-80
2023/12/26 03:49:00;;;;;;;;;;;;;;;;;;6282730;28;19967;-79
2023/12/26 03:52:00;;;;;;;;;;;;;;;;;;6287810;28;19913;-80
2023/12/26 03:55:00;;;;;;;;;;;;;;;;;;6291518;28;19939;-81
2023/12/26 03:58:00;;;;;;;;;;;;;;;;;;6287954;28;20412;-79
2023/12/26 04:01:01;;;;;;;;;;;;;;;;;;6271188;28;19921;-80
2023/12/26 04:04:02;;;;;;;;;;;;;;;;;;6285582;28;20416;-80
2023/12/26 04:07:02;;;;;;;;;;;;;;;;;;6286259;28;20393;-80
2023/12/26 04:10:02;;;;;;;;;;;;;;;;;;6286964;28;19921;-80
2023/12/26 04:13:03;;;;;;;;;;;;;;;;;;6289863;28;19916;-80
2023/12/26 04:16:03;;;;;;;;;;;;;;;;;;6283236;28;20331;-80
2023/12/26 04:19:03;;;;;;;;;;;;;;;;;;6282347;28;20296;-80
2023/12/26 04:22:03;;;;;;;;;;;;;;;;;;6269037;28;19947;-80
2023/12/26 04:25:05;;;;;;;;;;;;;;;;;;6288700;28;19921;-80
2023/12/26 04:28:05;;;;;;;;;;;;;;;;;;6289860;28;19921;-80
2023/12/26 04:31:05;;;;;;;;;;;;;;;;;;6280921;28;19966;-80
2023/12/26 04:34:05;;;;;;;;;;;;;;;;;;6289357;28;19917;-79
2023/12/26 04:37:05;;;;;;;;;;;;;;;;;;6283616;28;19920;-79
2023/12/26 04:40:05;;;;;;;;;;;;;;;;;;6287431;28;19913;-80
2023/12/26 04:43:08;;;;;;;;;;;;;;;;;;6285818;28;19966;-80
2023/12/26 04:46:08;;;;;;;;;;;;;;;;;;6291419;28;20590;-80
2023/12/26 04:49:08;;;;;;;;;;;;;;;;;;6288719;28;19920;-80
2023/12/26 04:52:08;;;;;;;;;;;;;;;;;;6285421;28;20386;-80
2023/12/26 04:55:09;;;;;;;;;;;;;;;;;;6288966;28;19917;-80
2023/12/26 04:58:09;;;;;;;;;;;;;;;;;;6293928;28;19920;-80
2023/12/26 05:01:09;;;;;;;;;;;;;;;;;;6284284;28;19928;-80
2023/12/26 05:04:12;;;;;;;;;;;;;;;;;;6287402;28;19925;-80
2023/12/26 05:07:13;;;;;;;;;;;;;;;;;;6286323;28;19912;-80
2023/12/26 05:10:13;;;;;;;;;;;;;;;;;;6272162;28;20288;-81
2023/12/26 05:13:13;;;;;;;;;;;;;;;;;;6285472;28;19969;-80
2023/12/26 05:16:13;;;;;;;;;;;;;;;;;;6284988;28;19958;-80
2023/12/26 05:19:13;;;;;;;;;;;;;;;;;;6287346;28;19944;-80
2023/12/26 05:22:13;;;;;;;;;;;;;;;;;;6291364;28;19916;-80
2023/12/26 05:25:13;;;;;;;;;;;;;;;;;;6265486;28;20003;-80
2023/12/26 05:28:14;;;;;;;;;;;;;;;;;;6259473;28;19917;-80
2023/12/26 05:31:16;;;;;;;;;;;;;;;;;;6288699;28;20139;-80
2023/12/26 05:34:16;;;;;;;;;;;;;;;;;;6285332;28;19923;-80
2023/12/26 05:37:17;;;;;;;;;;;;;;;;;;6291379;28;20315;-80
2023/12/26 05:40:17;;;;;;;;;;;;;;;;;;6281009;28;20008;-80
2023/12/26 05:43:17;;;;;;;;;;;;;;;;;;6286241;28;19939;-80
2023/12/26 05:46:18;;;;;;;;;;;;;;;;;;6286475;28;19928;-80
2023/12/26 05:49:19;;;;;;;;;;;;;;;;;;6285746;28;19920;-80
2023/12/26 05:52:19;;;;;;;;;;;;;;;;;;6289537;28;19912;-80
2023/12/26 05:55:19;;;;;;;;;;;;;;;;;;6282961;28;19924;-80
2023/12/26 05:58:20;;;;;;;;;;;;;;;;;;6275759;28;19913;-80
2023/12/26 06:01:20;;;;;;;;;;;;;;;;;;6288876;28;20412;-80
2023/12/26 06:04:20;;;;;;;;;;;;;;;;;;6279796;28;20322;-80
2023/12/26 06:07:20;;;;;;;;;;;;;;;;;;6289371;28;19935;-80
2023/12/26 06:10:20;;;;;;;;;;;;;;;;;;6282762;28;19912;-80
2023/12/26 06:13:21;;;;;;;;;;;;;;;;;;6286526;28;19969;-80
2023/12/26 06:16:21;;;;;;;;;;;;;;;;;;6281840;28;20438;-80
2023/12/26 06:19:21;;;;;;;;;;;;;;;;;;6293415;28;19912;-80
2023/12/26 06:22:21;;;;;;;;;;;;;;;;;;6270565;28;20416;-80
2023/12/26 06:25:21;;;;;;;;;;;;;;;;;;6285141;28;20381;-80
2023/12/26 06:28:22;;;;;;;;;;;;;;;;;;6283923;28;19917;-80
2023/12/26 06:31:22;;;;;;;;;;;;;;;;;;6282326;28;19913;-80
2023/12/26 06:34:22;;;;;;;;;;;;;;;;;;6288204;28;19958;-80
2023/12/26 06:37:22;;;;;;;;;;;;;;;;;;6282834;28;20293;-80
2023/12/26 06:40:22;;;;;;;;;;;;;;;;;;6271644;28;19917;-82
2023/12/26 06:43:22;;;;;;;;;;;;;;;;;;6287894;28;19924;-81
2023/12/26 06:46:22;;;;;;;;;;;;;;;;;;6292848;28;19921;-81
2023/12/26 06:49:23;;;;;;;;;;;;;;;;;;6280046;28;19916;-80
2023/12/26 06:52:23;;;;;;;;;;;;;;;;;;6297221;28;19963;-81
2023/12/26 06:55:23;;;;;;;;;;;;;;;;;;6290829;28;20011;-81
2023/12/26 06:58:23;;;;;;;;;;;;;;;;;;6292559;28;19961;-80
2023/12/26 07:01:23;;;;;;;;;;;;;;;;;;6291702;28;19924;-81
2023/12/26 07:04:23;;;;;;;;;;;;;;;;;;6297767;28;19931;-80
2023/12/26 07:07:23;;;;;;;;;;;;;;;;;;6296054;28;19916;-80
2023/12/26 07:10:23;;;;;;;;;;;;;;;;;;6292861;28;19913;-81
2023/12/26 07:13:24;;;;;;;;;;;;;;;;;;6277006;28;19988;-81
2023/12/26 07:16:24;;;;;;;;;;;;;;;;;;6279682;28;19912;-81
2023/12/26 07:19:24;;;;;;;;;;;;;;;;;;6277144;28;19909;-81
2023/12/26 07:22:24;;;;;;;;;;;;;;;;;;6290727;28;19928;-81
2023/12/26 07:25:24;;;;;;;;;;;;;;;;;;6283452;28;19970;-86
2023/12/26 07:28:24;;;;;;;;;;;;;;;;;;6286472;28;20347;-84
2023/12/26 07:31:25;;;;;;;;;;;;;;;;;;6280988;28;20321;-84
2023/12/26 07:34:25;;;;;;;;;;;;;;;;;;6290913;28;19917;-84
2023/12/26 07:37:26;;;;;;;;;;;;;;;;;;6292035;28;19915;-82
2023/12/26 07:40:26;;;;;;;;;;;;;;;;;;6288722;28;19969;-83
2023/12/26 07:43:26;;;;;;;;;;;;;;;;;;6292409;28;19918;-80
2023/12/26 07:46:26;;;;;;;;;;;;;;;;;;6279195;28;19931;-80
2023/12/26 07:49:26;;;;;;;;;;;;;;;;;;6290085;28;19909;-81
2023/12/26 07:52:26;;;;;;;;;;;;;;;;;;6284064;28;20003;-80
2023/12/26 07:55:26;;;;;;;;;;;;;;;;;;6290793;28;19999;-81
2023/12/26 07:58:27;;;;;;;;;;;;;;;;;;6267031;28;20000;-81
2023/12/26 08:01:27;;;;;;;;;;;;;;;;;;6287870;28;19927;-79
2023/12/26 08:04:27;;;;;;;;;;;;;;;;;;6282773;28;19917;-82
2023/12/26 08:07:29;;;;;;;;;;;;;;;;;;6284685;28;20398;-81
2023/12/26 08:10:29;;;;;;;;;;;;;;;;;;6291973;28;19960;-81
2023/12/26 08:13:29;;;;;;;;;;;;;;;;;;6286547;28;20287;-81
2023/12/26 08:16:30;;;;;;;;;;;;;;;;;;6285597;28;20296;-80
2023/12/26 08:19:31;;;;;;;;;;;;;;;;;;6292950;28;19912;-82
2023/12/26 08:22:31;;;;;;;;;;;;;;;;;;6289363;28;19916;-80
2023/12/26 08:25:31;;;;;;;;;;;;;;;;;;6280744;28;19920;-82
2023/12/26 08:28:31;;;;;;;;;;;;;;;;;;6292325;28;19912;-81
2023/12/26 08:31:32;;;;;;;;;;;;;;;;;;6299172;28;19912;-81
2023/12/26 08:34:32;;;;;;;;;;;;;;;;;;6296166;28;19912;-81
2023/12/26 08:37:32;;;;;;;;;;;;;;;;;;6292288;28;19999;-81
2023/12/26 08:40:32;;;;;;;;;;;;;;;;;;6284856;28;19999;-81
2023/12/26 08:43:32;;;;;;;;;;;;;;;;;;6283589;28;19924;-81
2023/12/26 08:46:32;;;;;;;;;;;;;;;;;;6280552;28;19999;-81
2023/12/26 08:49:33;;;;;;;;;;;;;;;;;;6280045;28;19913;-82
2023/12/26 08:52:33;;;;;;;;;;;;;;;;;;6280433;28;20426;-82
2023/12/26 08:55:33;;;;;;;;;;;;;;;;;;6291896;28;19920;-82
2023/12/26 08:58:33;;;;;;;;;;;;;;;;;;6279586;28;20050;-83
2023/12/26 09:01:35;;;;;;;;;;;;;;;;;;6297394;28;19921;-82
2023/12/26 09:04:35;;;;;;;;;;;;;;;;;;6276141;28;19928;-82
2023/12/26 09:07:36;;;;;;;;;;;;;;;;;;6293428;28;19982;-82
2023/12/26 09:10:36;;;;;;;;;;;;;;;;;;6292371;28;19919;-82
2023/12/26 09:13:36;;;;;;;;;;;;;;;;;;6293889;28;19927;-82
2023/12/26 09:16:36;;;;;;;;;;;;;;;;;;6288960;28;19935;-82
2023/12/26 09:19:36;;;;;;;;;;;;;;;;;;6287884;28;19935;-81
2023/12/26 09:22:36;;;;;;;;;;;;;;;;;;6293875;28;19916;-81
2023/12/26 09:25:36;;;;;;;;;;;;;;;;;;6296321;28;19916;-82
2023/12/26 09:28:37;;;;;;;;;;;;;;;;;;6281789;28;19935;-82
2023/12/26 09:31:37;;;;;;;;;;;;;;;;;;6302945;28;19912;-82
2023/12/26 09:34:37;;;;;;;;;;;;;;;;;;6287633;28;20007;-82
2023/12/26 09:37:38;;;;;;;;;;;;;;;;;;6285314;28;20007;-79
2023/12/26 09:40:38;;;;;;;;;;;;;;;;;;6283293;28;19912;-81
2023/12/26 09:43:40;;;;;;;;;;;;;;;;;;6283138;28;20008;-82
2023/12/26 09:46:40;;;;;;;;;;;;;;;;;;6278289;28;19923;-81
2023/12/26 09:49:43;;;;;;;;;;;;;;;;;;6274419;28;19913;-81
2023/12/26 09:52:43;;;;;;;;;;;;;;;;;;6265250;28;19925;-81
2023/12/26 09:55:44;;;;;;;;;;;;;;;;;;6285160;28;20376;-75
2023/12/26 09:58:44;;;;;;;;;;;;;;;;;;6282522;28;20270;-80
2023/12/26 10:01:47;;;;;;;;;;;;;;;;;;6287133;28;19943;-80
2023/12/26 10:04:47;;;;;;;;;;;;;;;;;;6289690;28;19925;-81
2023/12/26 10:07:47;;;;;;;;;;;;;;;;;;6286287;28;20286;-81
2023/12/26 10:10:47;;;;;;;;;;;;;;;;;;6283168;28;19917;-80
2023/12/26 10:13:52;;;;;;;;;;;;;;;;;;6285404;28;19916;-80
2023/12/26 10:16:53;;;;;;;;;;;;;;;;;;6291005;28;19959;-81
2023/12/26 10:19:53;;;;;;;;;;;;;;;;;;6293616;28;19913;-80
2023/12/26 10:22:53;;;;;;;;;;;;;;;;;;6297833;28;19927;-80
2023/12/26 10:25:53;;;;;;;;;;;;;;;;;;6297240;28;19912;-79
2023/12/26 10:28:53;;;;;;;;;;;;;;;;;;6282136;28;19917;-80
2023/12/26 10:31:53;;;;;;;;;;;;;;;;;;6291756;28;19913;-81
2023/12/26 10:34:53;;;;;;;;;;;;;;;;;;6268980;28;19920;-80
2023/12/26 10:37:54;;;;;;;;;;;;;;;;;;6297350;28;19912;-80
2023/12/26 10:40:54;;;;;;;;;;;;;;;;;;6296963;28;19919;-80
2023/12/26 10:43:56;;;;;;;;;;;;;;;;;;6291555;28;20387;-80
2023/12/26 10:46:56;;;;;;;;;;;;;;;;;;6289229;28;19952;-80
2023/12/26 10:49:59;;;;;;;;;;;;;;;;;;6276380;28;19912;-81
2023/12/26 10:52:59;;;;;;;;;;;;;;;;;;6282793;28;19913;-82
2023/12/26 10:55:59;;;;;;;;;;;;;;;;;;6277983;28;19916;-81
2023/12/26 10:59:00;;;;;;;;;;;;;;;;;;6285133;28;19920;-80
2023/12/26 11:02:00;;;;;;;;;;;;;;;;;;6289797;28;19927;-80
2023/12/26 11:05:00;;;;;;;;;;;;;;;;;;6296100;28;19924;-80
2023/12/26 11:08:00;;;;;;;;;;;;;;;;;;6277983;28;19923;-81
2023/12/26 11:11:00;;;;;;;;;;;;;;;;;;6290790;28;19922;-80
2023/12/26 11:14:00;;;;;;;;;;;;;;;;;;6288297;28;19940;-81
2023/12/26 11:17:00;;;;;;;;;;;;;;;;;;6293284;28;19917;-80
2023/12/26 11:20:00;;;;;;;;;;;;;;;;;;6293957;28;19912;-80
2023/12/26 11:23:01;;;;;;;;;;;;;;;;;;6274023;28;19927;-81
2023/12/26 11:26:01;;;;;;;;;;;;;;;;;;6292840;28;19919;-80
2023/12/26 11:29:01;;;;;;;;;;;;;;;;;;6297435;28;19966;-81
2023/12/26 11:32:01;;;;;;;;;;;;;;;;;;6298551;28;19916;-80
2023/12/26 11:35:01;;;;;;;;;;;;;;;;;;6292893;28;19912;-79
2023/12/26 11:38:01;;;;;;;;;;;;;;;;;;6289532;28;19920;-80
2023/12/26 11:41:01;;;;;;;;;;;;;;;;;;6300184;28;19919;-80
2023/12/26 11:44:01;;;;;;;;;;;;;;;;;;6291468;28;19920;-80
2023/12/26 11:47:01;;;;;;;;;;;;;;;;;;6298616;28;19912;-80
2023/12/26 11:50:02;;;;;;;;;;;;;;;;;;6301485;28;19912;-80
2023/12/26 11:53:02;;;;;;;;;;;;;;;;;;6299770;28;19912;-81
2023/12/26 11:56:02;;;;;;;;;;;;;;;;;;6295552;28;19916;-80
2023/12/26 11:59:02;;;;;;;;;;;;;;;;;;6299521;28;19966;-80
2023/12/26 12:02:02;;;;;;;;;;;;;;;;;;6292655;28;19924;-80
2023/12/26 12:05:02;;;;;;;;;;;;;;;;;;6301292;28;19913;-80
2023/12/26 12:08:02;;;;;;;;;;;;;;;;;;6300708;28;19912;-81
2023/12/26 12:11:02;;;;;;;;;;;;;;;;;;6295339;28;19917;-81
2023/12/26 12:14:03;;;;;;;;;;;;;;;;;;6299278;28;19970;-81
2023/12/26 12:17:03;;;;;;;;;;;;;;;;;;6300364;28;19920;-81
2023/12/26 12:20:03;;;;;;;;;;;;;;;;;;6300444;28;19935;-80
2023/12/26 12:23:03;;;;;;;;;;;;;;;;;;6287966;28;19931;-81
2023/12/26 12:26:03;;;;;;;;;;;;;;;;;;6300463;28;19923;-80
2023/12/26 12:29:03;;;;;;;;;;;;;;;;;;6300119;28;19917;-81
2023/12/26 12:32:03;;;;;;;;;;;;;;;;;;6299684;28;19923;-80
2023/12/26 12:35:03;;;;;;;;;;;;;;;;;;6256474;28;19926;-86
2023/12/26 12:38:04;;;;;;;;;;;;;;;;;;6292333;28;19999;-87
2023/12/26 12:41:04;;;;;;;;;;;;;;;;;;6297978;28;19936;-87
2023/12/26 12:44:04;;;;;;;;;;;;;;;;;;6289052;28;20391;-87
2023/12/26 12:47:04;;;;;;;;;;;;;;;;;;6274266;28;20284;-87
2023/12/26 12:50:04;;;;;;;;;;;;;;;;;;6283933;28;19912;-88
2023/12/26 12:53:04;;;;;;;;;;;;;;;;;;6299382;28;19913;-88
2023/12/26 12:56:04;;;;;;;;;;;;;;;;;;6280986;28;19919;-88
2023/12/26 12:59:04;;;;;;;;;;;;;;;;;;6300527;28;19919;-87
2023/12/26 13:02:05;;;;;;;;;;;;;;;;;;6293625;28;19921;-88
2023/12/26 13:05:05;;;;;;;;;;;;;;;;;;6297890;28;20023;-85
2023/12/26 13:08:05;;;;;;;;;;;;;;;;;;6299577;28;19998;-88
2023/12/26 13:11:05;;;;;;;;;;;;;;;;;;6284120;28;19952;-89
2023/12/26 13:14:05;;;;;;;;;;;;;;;;;;6294364;28;19920;-88
2023/12/26 13:17:05;;;;;;;;;;;;;;;;;;6274252;28;19913;-88
2023/12/26 13:20:05;;;;;;;;;;;;;;;;;;6294616;28;19970;-87
2023/12/26 13:23:06;;;;;;;;;;;;;;;;;;6301286;28;19920;-88
2023/12/26 13:26:06;;;;;;;;;;;;;;;;;;6281765;28;19913;-88
2023/12/26 13:29:06;;;;;;;;;;;;;;;;;;6294223;28;19920;-87
2023/12/26 13:32:06;;;;;;;;;;;;;;;;;;6300295;28;19916;-88
2023/12/26 13:35:06;;;;;;;;;;;;;;;;;;6278525;28;19916;-87
2023/12/26 13:38:06;;;;;;;;;;;;;;;;;;6296040;28;19970;-88
2023/12/26 13:41:06;;;;;;;;;;;;;;;;;;6284621;28;19939;-88
2023/12/26 13:44:06;;;;;;;;;;;;;;;;;;6298885;28;20557;-81
2023/12/26 13:47:07;;;;;;;;;;;;;;;;;;6296505;28;20297;-80
2023/12/26 13:50:07;;;;;;;;;;;;;;;;;;6294995;28;19920;-81
2023/12/26 13:53:07;;;;;;;;;;;;;;;;;;6296081;28;19919;-80
2023/12/26 13:56:08;;;;;;;;;;;;;;;;;;6280359;28;19912;-80
2023/12/26 13:59:08;;;;;;;;;;;;;;;;;;6278946;28;20024;-80
2023/12/26 14:02:08;;;;;;;;;;;;;;;;;;6267296;28;21173;-80
2023/12/26 14:05:08;;;;;;;;;;;;;;;;;;6271153;28;20069;-80
2023/12/26 14:08:09;;;;;;;;;;;;;;;;;;6271182;28;20031;-80
2023/12/26 14:11:09;;;;;;;;;;;;;;;;;;6287988;28;20016;-80
2023/12/26 14:14:09;;;;;;;;;;;;;;;;;;6248220;28;20407;-80
2023/12/26 14:17:09;;;;;;;;;;;;;;;;;;6267734;28;19916;-79
2023/12/26 14:20:10;;;;;;;;;;;;;;;;;;6281116;28;19920;-79
2023/12/26 14:23:10;;;;;;;;;;;;;;;;;;6281086;28;19924;-79
2023/12/26 14:26:10;;;;;;;;;;;;;;;;;;6273723;28;20304;-80
2023/12/26 14:29:10;;;;;;;;;;;;;;;;;;6282726;28;19917;-79
2023/12/26 14:32:11;;;;;;;;;;;;;;;;;;6266726;28;19940;-80
2023/12/26 14:35:11;;;;;;;;;;;;;;;;;;6274932;28;19913;-79
2023/12/26 14:38:11;;;;;;;;;;;;;;;;;;6279269;28;20115;-79
2023/12/26 14:41:12;;;;;;;;;;;;;;;;;;6274837;28;19920;-79
2023/12/26 14:44:12;;;;;;;;;;;;;;;;;;6281731;28;19927;-79
2023/12/26 14:47:12;;;;;;;;;;;;;;;;;;6284097;28;19974;-79
2023/12/26 14:50:12;;;;;;;;;;;;;;;;;;6286702;28;19913;-79
2023/12/26 14:53:12;;;;;;;;;;;;;;;;;;6251196;28;19966;-79
2023/12/26 14:56:12;;;;;;;;;;;;;;;;;;6296467;28;19959;-87
2023/12/26 14:59:13;;;;;;;;;;;;;;;;;;6280092;28;20353;-86
2023/12/26 15:02:13;;;;;;;;;;;;;;;;;;6291065;28;19944;-87
2023/12/26 15:05:13;;;;;;;;;;;;;;;;;;6313654;28;20356;-87
2023/12/26 15:08:13;;;;;;;;;;;;;;;;;;6310831;28;19965;-86
2023/12/26 15:11:14;;;;;;;;;;;;;;;;;;6304412;28;19965;-86
2023/12/26 15:14:14;;;;;;;;;;;;;;;;;;6303546;28;19943;-87
2023/12/26 15:17:15;;;;;;;;;;;;;;;;;;6316621;28;19920;-87
2023/12/26 15:20:15;;;;;;;;;;;;;;;;;;6294530;28;20353;-87
2023/12/26 15:23:15;;;;;;;;;;;;;;;;;;6302506;28;20007;-86
2023/12/26 15:26:15;;;;;;;;;;;;;;;;;;6287899;28;19912;-87
2023/12/26 15:29:15;;;;;;;;;;;;;;;;;;6296736;28;20329;-84
2023/12/26 15:32:16;;;;;;;;;;;;;;;;;;6309427;28;19912;-86
2023/12/26 15:35:16;;;;;;;;;;;;;;;;;;6294822;28;19912;-87
2023/12/26 15:38:16;;;;;;;;;;;;;;;;;;6302060;28;19920;-87
2023/12/26 15:41:16;;;;;;;;;;;;;;;;;;6308188;28;19981;-87
2023/12/26 15:44:16;;;;;;;;;;;;;;;;;;6316620;28;19920;-85
2023/12/26 15:47:16;;;;;;;;;;;;;;;;;;6300617;28;19920;-87
2023/12/26 15:50:16;;;;;;;;;;;;;;;;;;6304842;28;19919;-87
2023/12/26 15:53:16;;;;;;;;;;;;;;;;;;6318233;28;19919;-87
2023/12/26 15:56:17;;;;;;;;;;;;;;;;;;6300928;28;19912;-87
2023/12/26 15:59:17;;;;;;;;;;;;;;;;;;6288765;28;20375;-85
2023/12/26 16:02:17;;;;;;;;;;;;;;;;;;6299740;28;19921;-87
2023/12/26 16:05:17;;;;;;;;;;;;;;;;;;6301576;28;19916;-87
2023/12/26 16:08:20;;;;;;;;;;;;;;;;;;6283208;28;19962;-87
2023/12/26 16:11:21;;;;;;;;;;;;;;;;;;6301212;28;19913;-87
2023/12/26 16:14:23;;;;;;;;;;;;;;;;;;6282440;28;19917;-87
2023/12/26 16:17:25;;;;;;;;;;;;;;;;;;6300566;28;21243;-85
2023/12/26 16:20:25;;;;;;;;;;;;;;;;;;6300394;28;19919;-87
2023/12/26 16:23:25;;;;;;;;;;;;;;;;;;6291699;28;19920;-86
2023/12/26 16:26:26;;;;;;;;;;;;;;;;;;6300140;28;19958;-87
2023/12/26 16:29:26;;;;;;;;;;;;;;;;;;6280923;28;19912;-86
2023/12/26 16:32:26;;;;;;;;;;;;;;;;;;6282356;28;19919;-87
2023/12/26 16:35:26;;;;;;;;;;;;;;;;;;6297881;28;19958;-87
2023/12/26 16:38:26;;;;;;;;;;;;;;;;;;6281871;28;19938;-88
2023/12/26 16:41:26;;;;;;;;;;;;;;;;;;6300716;28;19916;-88
2023/12/26 16:44:26;;;;;;;;;;;;;;;;;;6298479;28;19920;-87
2023/12/26 16:47:27;;;;;;;;;;;;;;;;;;6299645;28;19913;-87
2023/12/26 16:50:27;;;;;;;;;;;;;;;;;;6299827;28;19912;-87
2023/12/26 16:53:27;;;;;;;;;;;;;;;;;;6300483;28;19912;-87
2023/12/26 16:56:27;;;;;;;;;;;;;;;;;;6300258;28;19921;-87
2023/12/26 16:59:27;;;;;;;;;;;;;;;;;;6307142;28;19913;-87
2023/12/26 17:02:28;;;;;;;;;;;;;;;;;;6306686;28;19926;-87
2023/12/26 17:05:28;;;;;;;;;;;;;;;;;;6300009;28;19917;-87
2023/12/26 17:08:28;;;;;;;;;;;;;;;;;;6301432;28;19912;-87
2023/12/26 17:11:28;;;;;;;;;;;;;;;;;;6296139;28;19957;-88
2023/12/26 17:14:28;;;;;;;;;;;;;;;;;;6297112;28;20026;-80
2023/12/26 17:17:28;;;;;;;;;;;;;;;;;;6282159;28;19959;-79
2023/12/26 17:20:30;;;;;;;;;;;;;;;;;;6296576;28;20324;-79
2023/12/26 17:23:30;;;;;;;;;;;;;;;;;;6301726;28;20407;-79
2023/12/26 17:26:30;;;;;;;;;;;;;;;;;;6299027;28;19923;-80
2023/12/26 17:29:33;;;;;;;;;;;;;;;;;;6274439;28;19919;-80
2023/12/26 17:32:33;;;;;;;;;;;;;;;;;;6292614;28;19919;-78
2023/12/26 17:35:34;;;;;;;;;;;;;;;;;;6294115;28;19955;-79
2023/12/26 17:38:34;;;;;;;;;;;;;;;;;;6279296;28;19920;-79
2023/12/26 17:41:34;;;;;;;;;;;;;;;;;;6298020;28;19974;-79
2023/12/26 17:44:34;;;;;;;;;;;;;;;;;;6294166;28;19920;-79
2023/12/26 17:47:36;;;;;;;;;;;;;;;;;;6292206;28;19939;-79
2023/12/26 17:50:36;;;;;;;;;;;;;;;;;;6295172;28;19913;-79
2023/12/26 17:53:36;;;;;;;;;;;;;;;;;;6294780;28;19919;-79
2023/12/26 17:56:36;;;;;;;;;;;;;;;;;;6297912;28;19919;-79
2023/12/26 17:59:36;;;;;;;;;;;;;;;;;;6291020;28;19923;-79
2023/12/26 18:02:36;;;;;;;;;;;;;;;;;;6293465;28;19920;-79
2023/12/26 18:05:37;;;;;;;;;;;;;;;;;;6291055;28;20357;-79
2023/12/26 18:08:37;;;;;;;;;;;;;;;;;;6293007;28;19913;-79
2023/12/26 18:11:37;;;;;;;;;;;;;;;;;;6295756;28;20015;-79
2023/12/26 18:14:37;;;;;;;;;;;;;;;;;;6273458;28;20440;-80
2023/12/26 18:17:37;;;;;;;;;;;;;;;;;;6291619;28;19912;-79
2023/12/26 18:20:38;;;;;;;;;;;;;;;;;;6299994;28;19913;-80
2023/12/26 18:23:38;;;;;;;;;;;;;;;;;;6291489;28;19920;-87
2023/12/26 18:26:38;;;;;;;;;;;;;;;;;;6287067;28;19912;-87
2023/12/26 18:29:38;;;;;;;;;;;;;;;;;;6297202;28;19917;-87
2023/12/26 18:32:38;;;;;;;;;;;;;;;;;;6287434;28;19912;-87
2023/12/26 18:35:40;;;;;;;;;;;;;;;;;;6297643;28;19920;-87
2023/12/26 18:38:40;;;;;;;;;;;;;;;;;;6281888;28;19952;-87
2023/12/26 18:41:41;;;;;;;;;;;;;;;;;;6285989;28;19969;-87
2023/12/26 18:44:42;;;;;;;;;;;;;;;;;;6295712;28;20343;-88
2023/12/26 18:47:43;;;;;;;;;;;;;;;;;;6293725;28;19916;-86
2023/12/26 18:50:44;;;;;;;;;;;;;;;;;;6307742;28;20407;-87
2023/12/26 18:53:44;;;;;;;;;;;;;;;;;;6303481;28;19955;-87
2023/12/26 18:56:45;;;;;;;;;;;;;;;;;;6282786;28;19913;-86
2023/12/26 18:59:45;;;;;;;;;;;;;;;;;;6293200;28;19999;-88
2023/12/26 19:02:45;;;;;;;;;;;;;;;;;;6294365;28;20019;-87
2023/12/26 19:05:45;;;;;;;;;;;;;;;;;;6297329;28;19921;-87
2023/12/26 19:08:46;;;;;;;;;;;;;;;;;;6273993;28;19983;-88
2023/12/26 19:11:48;;;;;;;;;;;;;;;;;;6298020;28;20276;-87
2023/12/26 19:14:48;;;;;;;;;;;;;;;;;;6295607;28;20039;-88
2023/12/26 19:17:48;;;;;;;;;;;;;;;;;;6287876;28;19919;-87
2023/12/26 19:20:48;;;;;;;;;;;;;;;;;;6297470;28;20021;-88
2023/12/26 19:23:49;;;;;;;;;;;;;;;;;;6297247;28;20217;-87
2023/12/26 19:26:51;;;;;;;;;;;;;;;;;;6297570;28;19928;-88
2023/12/26 19:29:51;;;;;;;;;;;;;;;;;;6279548;28;19921;-88
2023/12/26 19:32:51;;;;;;;;;;;;;;;;;;6280088;28;20297;-88
2023/12/26 19:35:51;;;;;;;;;;;;;;;;;;6295712;28;20325;-88
2023/12/26 19:38:51;;;;;;;;;;;;;;;;;;6297369;28;20448;-88
2023/12/26 19:41:51;;;;;;;;;;;;;;;;;;6279336;28;19913;-87
2023/12/26 19:44:53;;;;;;;;;;;;;;;;;;6277815;28;19923;-87
2023/12/26 19:47:54;;;;;;;;;;;;;;;;;;6280993;28;19912;-87
2023/12/26 19:50:54;;;;;;;;;;;;;;;;;;6303014;28;19965;-87
2023/12/26 19:53:55;;;;;;;;;;;;;;;;;;6303262;28;19912;-86
2023/12/26 19:56:55;;;;;;;;;;;;;;;;;;6304804;28;19952;-87
2023/12/26 19:59:55;;;;;;;;;;;;;;;;;;6287630;28;20010;-88
2023/12/26 20:02:55;;;;;;;;;;;;;;;;;;6305130;28;19921;-87
2023/12/26 20:05:56;;;;;;;;;;;;;;;;;;6307008;28;19917;-88
2023/12/26 20:08:56;;;;;;;;;;;;;;;;;;6298662;28;19973;-88
2023/12/26 20:11:57;;;;;;;;;;;;;;;;;;6302374;28;19916;-88
2023/12/26 20:14:57;;;;;;;;;;;;;;;;;;6278480;28;19912;-88
2023/12/26 20:17:57;;;;;;;;;;;;;;;;;;6291861;28;19916;-88
2023/12/26 20:20:57;;;;;;;;;;;;;;;;;;6283304;28;20258;-88
2023/12/26 20:23:57;;;;;;;;;;;;;;;;;;6300823;28;20339;-86
2023/12/26 20:26:57;;;;;;;;;;;;;;;;;;6282702;28;20353;-88
2023/12/26 20:29:58;;;;;;;;;;;;;;;;;;6299459;28;20285;-88